sensor_id;sensor_type;location;lat;lon;timestamp;temperature;humidity
45807;DHT22;31507;51.494;7.518;2023-07-13T00:02:22;16.40;99.90
45807;DHT22;31507;51.494;7.518;2023-07-13T00:04:48;16.30;99.90
45807;DHT22;31507;51.494;7.518;2023-07-13T00:07:14;16.20;99.90
45807;DHT22;31507;51.494;7.518;2023-07-13T00:09:40;16.20;99.90
45807;DHT22;31507;51.494;7.518;2023-07-13T00:12:31;16.20;99.90
45807;DHT22;31507;51.494;7.518;2023-07-13T00:14:58;16.10;99.90
45807;DHT22;31507;51.494;7.518;2023-07-13T00:17:25;16.00;99.90
45807;DHT22;31507;51.494;7.518;2023-07-13T00:19:51;16.00;99.90
45807;DHT22;31507;51.494;7.518;2023-07-13T00:22:17;15.90;99.90
45807;DHT22;31507;51.494;7.518;2023-07-13T00:24:44;15.90;99.90
45807;DHT22;31507;51.494;7.518;2023-07-13T00:27:10;15.80;99.90
45807;DHT22;31507;51.494;7.518;2023-07-13T00:29:36;15.90;99.90
45807;DHT22;31507;51.494;7.518;2023-07-13T00:32:06;15.80;99.90
45807;DHT22;31507;51.494;7.518;2023-07-13T00:34:32;15.70;99.90
45807;DHT22;31507;51.494;7.518;2023-07-13T00:36:58;15.70;99.90
45807;DHT22;31507;51.494;7.518;2023-07-13T00:39:24;15.70;99.90
45807;DHT22;31507;51.494;7.518;2023-07-13T00:41:50;15.70;99.90
45807;DHT22;31507;51.494;7.518;2023-07-13T00:44:18;15.60;99.90
45807;DHT22;31507;51.494;7.518;2023-07-13T00:46:44;15.60;99.90
45807;DHT22;31507;51.494;7.518;2023-07-13T00:49:15;15.60;99.90
45807;DHT22;31507;51.494;7.518;2023-07-13T00:51:47;15.50;99.90
45807;DHT22;31507;51.494;7.518;2023-07-13T00:54:23;15.50;99.90
45807;DHT22;31507;51.494;7.518;2023-07-13T00:56:51;15.50;99.90
45807;DHT22;31507;51.494;7.518;2023-07-13T00:59:19;15.50;99.90
45807;DHT22;31507;51.494;7.518;2023-07-13T01:01:47;15.40;99.90
45807;DHT22;31507;51.494;7.518;2023-07-13T01:04:13;15.50;99.90
45807;DHT22;31507;51.494;7.518;2023-07-13T01:06:40;15.50;99.90
45807;DHT22;31507;51.494;7.518;2023-07-13T01:09:08;15.40;99.90
45807;DHT22;31507;51.494;7.518;2023-07-13T01:11:33;15.30;99.90
45807;DHT22;31507;51.494;7.518;2023-07-13T01:14:00;15.20;99.90
45807;DHT22;31507;51.494;7.518;2023-07-13T01:16:37;15.10;99.90
45807;DHT22;31507;51.494;7.518;2023-07-13T01:19:39;15.10;99.90
45807;DHT22;31507;51.494;7.518;2023-07-13T01:22:12;15.10;99.90
45807;DHT22;31507;51.494;7.518;2023-07-13T01:24:40;15.20;99.90
45807;DHT22;31507;51.494;7.518;2023-07-13T01:27:08;15.10;99.90
45807;DHT22;31507;51.494;7.518;2023-07-13T01:29:35;15.10;99.90
45807;DHT22;31507;51.494;7.518;2023-07-13T01:32:12;15.20;99.90
45807;DHT22;31507;51.494;7.518;2023-07-13T01:34:38;15.20;99.90
45807;DHT22;31507;51.494;7.518;2023-07-13T01:37:08;15.20;99.90
45807;DHT22;31507;51.494;7.518;2023-07-13T01:39:34;15.10;99.90
45807;DHT22;31507;51.494;7.518;2023-07-13T01:41:59;15.20;99.90
45807;DHT22;31507;51.494;7.518;2023-07-13T01:44:25;15.20;99.90
45807;DHT22;31507;51.494;7.518;2023-07-13T01:46:51;15.20;99.90
45807;DHT22;31507;51.494;7.518;2023-07-13T01:49:17;15.10;99.90
45807;DHT22;31507;51.494;7.518;2023-07-13T01:51:42;15.10;99.90
45807;DHT22;31507;51.494;7.518;2023-07-13T01:54:08;15.10;99.90
45807;DHT22;31507;51.494;7.518;2023-07-13T01:56:34;15.10;99.90
45807;DHT22;31507;51.494;7.518;2023-07-13T01:58:59;15.00;99.90
45807;DHT22;31507;51.494;7.518;2023-07-13T02:01:25;15.00;99.90
45807;DHT22;31507;51.494;7.518;2023-07-13T02:03:50;15.00;99.90
45807;DHT22;31507;51.494;7.518;2023-07-13T02:06:16;14.90;99.90
45807;DHT22;31507;51.494;7.518;2023-07-13T02:08:42;14.90;99.90
45807;DHT22;31507;51.494;7.518;2023-07-13T02:11:08;14.90;99.90
45807;DHT22;31507;51.494;7.518;2023-07-13T02:13:34;14.90;99.90
45807;DHT22;31507;51.494;7.518;2023-07-13T02:15:59;14.90;99.90
45807;DHT22;31507;51.494;7.518;2023-07-13T02:18:25;14.80;99.90
45807;DHT22;31507;51.494;7.518;2023-07-13T02:20:51;14.80;99.90
45807;DHT22;31507;51.494;7.518;2023-07-13T02:23:17;14.70;99.90
45807;DHT22;31507;51.494;7.518;2023-07-13T02:25:42;14.70;99.90
45807;DHT22;31507;51.494;7.518;2023-07-13T02:28:08;14.70;99.90
45807;DHT22;31507;51.494;7.518;2023-07-13T02:30:34;14.70;99.90
45807;DHT22;31507;51.494;7.518;2023-07-13T02:33:00;14.60;99.90
45807;DHT22;31507;51.494;7.518;2023-07-13T02:35:26;14.60;99.90
45807;DHT22;31507;51.494;7.518;2023-07-13T02:37:51;14.60;99.90
45807;DHT22;31507;51.494;7.518;2023-07-13T02:40:17;14.60;99.90
45807;DHT22;31507;51.494;7.518;2023-07-13T02:42:43;14.60;99.90
45807;DHT22;31507;51.494;7.518;2023-07-13T02:45:09;14.60;99.90
45807;DHT22;31507;51.494;7.518;2023-07-13T02:47:36;14.70;99.90
45807;DHT22;31507;51.494;7.518;2023-07-13T02:50:02;14.70;99.90
45807;DHT22;31507;51.494;7.518;2023-07-13T02:52:28;14.70;99.90
45807;DHT22;31507;51.494;7.518;2023-07-13T02:54:53;14.70;99.90
45807;DHT22;31507;51.494;7.518;2023-07-13T02:57:19;14.70;99.90
45807;DHT22;31507;51.494;7.518;2023-07-13T02:59:44;14.70;99.90
45807;DHT22;31507;51.494;7.518;2023-07-13T03:02:10;14.70;99.90
45807;DHT22;31507;51.494;7.518;2023-07-13T03:04:36;14.70;99.90
45807;DHT22;31507;51.494;7.518;2023-07-13T03:07:03;14.60;99.90
45807;DHT22;31507;51.494;7.518;2023-07-13T03:09:30;14.60;99.90
45807;DHT22;31507;51.494;7.518;2023-07-13T03:11:56;14.60;99.90
45807;DHT22;31507;51.494;7.518;2023-07-13T03:14:23;14.60;99.90
45807;DHT22;31507;51.494;7.518;2023-07-13T03:16:49;14.50;99.90
45807;DHT22;31507;51.494;7.518;2023-07-13T03:19:15;14.50;99.90
45807;DHT22;31507;51.494;7.518;2023-07-13T03:21:40;14.50;99.90
45807;DHT22;31507;51.494;7.518;2023-07-13T03:24:06;14.50;99.90
45807;DHT22;31507;51.494;7.518;2023-07-13T03:26:32;14.40;99.90
45807;DHT22;31507;51.494;7.518;2023-07-13T03:28:57;14.40;99.90
45807;DHT22;31507;51.494;7.518;2023-07-13T03:31:26;14.40;99.90
45807;DHT22;31507;51.494;7.518;2023-07-13T03:33:54;14.40;99.90
45807;DHT22;31507;51.494;7.518;2023-07-13T03:36:22;14.50;99.90
45807;DHT22;31507;51.494;7.518;2023-07-13T03:38:54;14.50;99.90
45807;DHT22;31507;51.494;7.518;2023-07-13T03:41:20;14.50;99.90
45807;DHT22;31507;51.494;7.518;2023-07-13T03:43:46;14.50;99.90
45807;DHT22;31507;51.494;7.518;2023-07-13T03:46:13;14.50;99.90
45807;DHT22;31507;51.494;7.518;2023-07-13T03:48:40;14.40;99.90
45807;DHT22;31507;51.494;7.518;2023-07-13T03:51:08;14.40;99.90
45807;DHT22;31507;51.494;7.518;2023-07-13T03:53:38;14.30;99.90
45807;DHT22;31507;51.494;7.518;2023-07-13T03:56:04;14.30;99.90
45807;DHT22;31507;51.494;7.518;2023-07-13T03:58:38;14.30;99.90
45807;DHT22;31507;51.494;7.518;2023-07-13T04:01:06;14.30;99.90
45807;DHT22;31507;51.494;7.518;2023-07-13T04:03:33;14.30;99.90
45807;DHT22;31507;51.494;7.518;2023-07-13T04:06:00;14.30;99.90
45807;DHT22;31507;51.494;7.518;2023-07-13T04:08:31;14.40;99.90
45807;DHT22;31507;51.494;7.518;2023-07-13T04:10:57;14.40;99.90
45807;DHT22;31507;51.494;7.518;2023-07-13T04:13:23;14.50;99.90
45807;DHT22;31507;51.494;7.518;2023-07-13T04:15:50;14.50;99.90
45807;DHT22;31507;51.494;7.518;2023-07-13T04:18:16;14.50;99.90
45807;DHT22;31507;51.494;7.518;2023-07-13T04:20:42;14.50;99.90
45807;DHT22;31507;51.494;7.518;2023-07-13T04:23:07;14.50;99.90
45807;DHT22;31507;51.494;7.518;2023-07-13T04:25:33;14.50;99.90
45807;DHT22;31507;51.494;7.518;2023-07-13T04:27:59;14.60;99.90
45807;DHT22;31507;51.494;7.518;2023-07-13T04:30:25;14.60;99.90
45807;DHT22;31507;51.494;7.518;2023-07-13T04:32:52;14.60;99.90
45807;DHT22;31507;51.494;7.518;2023-07-13T04:35:21;14.70;99.90
45807;DHT22;31507;51.494;7.518;2023-07-13T04:37:48;14.70;99.90
45807;DHT22;31507;51.494;7.518;2023-07-13T04:40:16;14.70;99.90
45807;DHT22;31507;51.494;7.518;2023-07-13T04:42:43;14.70;99.90
45807;DHT22;31507;51.494;7.518;2023-07-13T04:45:09;14.70;99.90
45807;DHT22;31507;51.494;7.518;2023-07-13T04:47:35;14.80;99.90
45807;DHT22;31507;51.494;7.518;2023-07-13T04:50:01;14.80;99.90
45807;DHT22;31507;51.494;7.518;2023-07-13T04:52:27;14.80;99.90
45807;DHT22;31507;51.494;7.518;2023-07-13T04:54:52;14.80;99.90
45807;DHT22;31507;51.494;7.518;2023-07-13T04:57:18;14.90;99.90
45807;DHT22;31507;51.494;7.518;2023-07-13T04:59:43;14.90;99.90
45807;DHT22;31507;51.494;7.518;2023-07-13T05:02:10;15.00;99.90
45807;DHT22;31507;51.494;7.518;2023-07-13T05:04:36;15.10;99.90
45807;DHT22;31507;51.494;7.518;2023-07-13T05:07:01;15.20;99.90
45807;DHT22;31507;51.494;7.518;2023-07-13T05:09:27;15.20;99.90
45807;DHT22;31507;51.494;7.518;2023-07-13T05:11:53;15.30;99.90
45807;DHT22;31507;51.494;7.518;2023-07-13T05:14:18;15.40;99.90
45807;DHT22;31507;51.494;7.518;2023-07-13T05:16:44;15.40;99.90
45807;DHT22;31507;51.494;7.518;2023-07-13T05:19:10;15.40;99.90
45807;DHT22;31507;51.494;7.518;2023-07-13T05:21:35;15.50;99.90
45807;DHT22;31507;51.494;7.518;2023-07-13T05:24:01;15.40;99.90
45807;DHT22;31507;51.494;7.518;2023-07-13T05:26:27;15.50;99.90
45807;DHT22;31507;51.494;7.518;2023-07-13T05:28:52;15.50;99.90
45807;DHT22;31507;51.494;7.518;2023-07-13T05:31:18;15.60;99.90
45807;DHT22;31507;51.494;7.518;2023-07-13T05:33:44;15.60;99.90
45807;DHT22;31507;51.494;7.518;2023-07-13T05:36:09;15.70;99.90
45807;DHT22;31507;51.494;7.518;2023-07-13T05:38:35;16.00;99.90
45807;DHT22;31507;51.494;7.518;2023-07-13T05:41:01;16.20;99.90
45807;DHT22;31507;51.494;7.518;2023-07-13T05:43:26;16.50;99.90
45807;DHT22;31507;51.494;7.518;2023-07-13T05:45:56;17.10;99.90
45807;DHT22;31507;51.494;7.518;2023-07-13T05:48:22;17.70;99.90
45807;DHT22;31507;51.494;7.518;2023-07-13T05:50:48;18.70;99.90
45807;DHT22;31507;51.494;7.518;2023-07-13T05:53:14;19.50;99.90
45807;DHT22;31507;51.494;7.518;2023-07-13T05:55:47;20.00;99.90
45807;DHT22;31507;51.494;7.518;2023-07-13T05:58:17;20.40;98.60
45807;DHT22;31507;51.494;7.518;2023-07-13T06:00:42;20.60;97.00
45807;DHT22;31507;51.494;7.518;2023-07-13T06:03:08;20.30;97.70
45807;DHT22;31507;51.494;7.518;2023-07-13T06:05:35;20.10;97.50
45807;DHT22;31507;51.494;7.518;2023-07-13T06:08:02;19.80;98.60
45807;DHT22;31507;51.494;7.518;2023-07-13T06:10:28;19.60;99.10
45807;DHT22;31507;51.494;7.518;2023-07-13T06:12:53;19.70;99.40
45807;DHT22;31507;51.494;7.518;2023-07-13T06:15:19;19.50;99.50
45807;DHT22;31507;51.494;7.518;2023-07-13T06:17:45;19.50;99.90
45807;DHT22;31507;51.494;7.518;2023-07-13T06:20:10;19.60;99.90
45807;DHT22;31507;51.494;7.518;2023-07-13T06:22:36;20.00;99.90
45807;DHT22;31507;51.494;7.518;2023-07-13T06:25:02;19.60;99.90
45807;DHT22;31507;51.494;7.518;2023-07-13T06:27:28;19.70;99.90
45807;DHT22;31507;51.494;7.518;2023-07-13T06:29:54;19.60;99.90
45807;DHT22;31507;51.494;7.518;2023-07-13T06:32:20;19.50;99.90
45807;DHT22;31507;51.494;7.518;2023-07-13T06:34:46;19.10;99.90
45807;DHT22;31507;51.494;7.518;2023-07-13T06:37:11;18.50;99.90
45807;DHT22;31507;51.494;7.518;2023-07-13T06:39:37;18.10;99.90
45807;DHT22;31507;51.494;7.518;2023-07-13T06:42:03;17.80;99.90
45807;DHT22;31507;51.494;7.518;2023-07-13T06:44:28;17.70;99.90
45807;DHT22;31507;51.494;7.518;2023-07-13T06:46:54;17.60;99.90
45807;DHT22;31507;51.494;7.518;2023-07-13T06:49:19;17.60;99.90
45807;DHT22;31507;51.494;7.518;2023-07-13T06:51:45;17.50;99.90
45807;DHT22;31507;51.494;7.518;2023-07-13T06:54:11;17.70;99.90
45807;DHT22;31507;51.494;7.518;2023-07-13T06:56:36;17.60;99.90
45807;DHT22;31507;51.494;7.518;2023-07-13T06:59:02;18.10;99.90
45807;DHT22;31507;51.494;7.518;2023-07-13T07:01:28;19.00;99.90
45807;DHT22;31507;51.494;7.518;2023-07-13T07:03:53;19.10;99.90
45807;DHT22;31507;51.494;7.518;2023-07-13T07:06:20;20.00;99.90
45807;DHT22;31507;51.494;7.518;2023-07-13T07:08:49;20.10;99.90
45807;DHT22;31507;51.494;7.518;2023-07-13T07:11:18;20.30;99.90
45807;DHT22;31507;51.494;7.518;2023-07-13T07:13:44;20.30;99.90
45807;DHT22;31507;51.494;7.518;2023-07-13T07:16:10;19.70;99.90
45807;DHT22;31507;51.494;7.518;2023-07-13T07:18:36;19.40;99.90
45807;DHT22;31507;51.494;7.518;2023-07-13T07:21:02;19.50;99.90
45807;DHT22;31507;51.494;7.518;2023-07-13T07:23:28;19.50;99.90
45807;DHT22;31507;51.494;7.518;2023-07-13T07:25:54;19.30;99.90
45807;DHT22;31507;51.494;7.518;2023-07-13T07:28:20;19.20;99.90
45807;DHT22;31507;51.494;7.518;2023-07-13T07:30:46;19.60;99.90
45807;DHT22;31507;51.494;7.518;2023-07-13T07:33:12;19.50;99.90
45807;DHT22;31507;51.494;7.518;2023-07-13T07:35:38;19.40;99.90
45807;DHT22;31507;51.494;7.518;2023-07-13T07:38:04;19.50;99.90
45807;DHT22;31507;51.494;7.518;2023-07-13T07:40:30;19.40;99.90
45807;DHT22;31507;51.494;7.518;2023-07-13T07:42:56;19.60;99.90
45807;DHT22;31507;51.494;7.518;2023-07-13T07:45:22;19.90;99.90
45807;DHT22;31507;51.494;7.518;2023-07-13T07:47:48;20.40;99.90
45807;DHT22;31507;51.494;7.518;2023-07-13T07:50:13;20.30;99.90
45807;DHT22;31507;51.494;7.518;2023-07-13T07:52:39;20.10;99.90
45807;DHT22;31507;51.494;7.518;2023-07-13T07:55:06;19.90;99.90
45807;DHT22;31507;51.494;7.518;2023-07-13T07:57:32;20.20;99.90
45807;DHT22;31507;51.494;7.518;2023-07-13T07:59:58;20.70;99.10
45807;DHT22;31507;51.494;7.518;2023-07-13T08:02:24;20.70;97.10
45807;DHT22;31507;51.494;7.518;2023-07-13T08:04:51;20.60;98.30
45807;DHT22;31507;51.494;7.518;2023-07-13T08:07:16;21.00;96.40
45807;DHT22;31507;51.494;7.518;2023-07-13T08:09:42;21.20;95.10
45807;DHT22;31507;51.494;7.518;2023-07-13T08:12:08;21.30;94.20
45807;DHT22;31507;51.494;7.518;2023-07-13T08:14:33;21.30;94.30
45807;DHT22;31507;51.494;7.518;2023-07-13T08:16:59;21.20;93.60
45807;DHT22;31507;51.494;7.518;2023-07-13T08:19:25;21.10;93.70
45807;DHT22;31507;51.494;7.518;2023-07-13T08:21:50;21.00;93.90
45807;DHT22;31507;51.494;7.518;2023-07-13T08:24:16;21.30;94.30
45807;DHT22;31507;51.494;7.518;2023-07-13T08:26:44;21.60;93.30
45807;DHT22;31507;51.494;7.518;2023-07-13T08:29:10;22.00;92.60
45807;DHT22;31507;51.494;7.518;2023-07-13T08:31:36;22.10;91.60
45807;DHT22;31507;51.494;7.518;2023-07-13T08:34:01;21.70;92.30
45807;DHT22;31507;51.494;7.518;2023-07-13T08:36:29;21.60;92.20
45807;DHT22;31507;51.494;7.518;2023-07-13T08:38:55;21.40;93.40
45807;DHT22;31507;51.494;7.518;2023-07-13T08:41:21;21.50;93.50
45807;DHT22;31507;51.494;7.518;2023-07-13T08:43:50;21.70;92.40
45807;DHT22;31507;51.494;7.518;2023-07-13T08:46:24;21.90;91.60
45807;DHT22;31507;51.494;7.518;2023-07-13T08:48:54;22.10;91.50
45807;DHT22;31507;51.494;7.518;2023-07-13T08:51:26;22.20;90.90
45807;DHT22;31507;51.494;7.518;2023-07-13T08:53:59;22.30;91.00
45807;DHT22;31507;51.494;7.518;2023-07-13T08:56:28;22.60;90.30
45807;DHT22;31507;51.494;7.518;2023-07-13T08:59:15;22.40;90.30
45807;DHT22;31507;51.494;7.518;2023-07-13T09:04:27;21.90;90.20
45807;DHT22;31507;51.494;7.518;2023-07-13T09:15:35;22.60;90.00
45807;DHT22;31507;51.494;7.518;2023-07-13T09:18:26;22.60;87.70
45807;DHT22;31507;51.494;7.518;2023-07-13T09:20:59;22.80;86.40
45807;DHT22;31507;51.494;7.518;2023-07-13T09:23:29;22.80;87.90
45807;DHT22;31507;51.494;7.518;2023-07-13T09:26:07;23.00;86.60
45807;DHT22;31507;51.494;7.518;2023-07-13T09:28:42;23.20;88.10
45807;DHT22;31507;51.494;7.518;2023-07-13T09:33:39;23.10;86.80
45807;DHT22;31507;51.494;7.518;2023-07-13T09:36:24;22.90;87.70
45807;DHT22;31507;51.494;7.518;2023-07-13T09:38:58;22.70;85.10
45807;DHT22;31507;51.494;7.518;2023-07-13T09:44:16;22.80;86.40
45807;DHT22;31507;51.494;7.518;2023-07-13T09:47:01;22.80;86.00
45807;DHT22;31507;51.494;7.518;2023-07-13T09:49:34;23.00;84.30
45807;DHT22;31507;51.494;7.518;2023-07-13T09:52:06;23.30;84.80
45807;DHT22;31507;51.494;7.518;2023-07-13T09:54:37;23.50;82.10
45807;DHT22;31507;51.494;7.518;2023-07-13T09:57:11;23.70;80.80
45807;DHT22;31507;51.494;7.518;2023-07-13T09:59:41;24.00;82.10
45807;DHT22;31507;51.494;7.518;2023-07-13T10:04:59;23.90;79.50
45807;DHT22;31507;51.494;7.518;2023-07-13T10:07:25;24.20;78.90
45807;DHT22;31507;51.494;7.518;2023-07-13T10:09:59;24.60;79.70
45807;DHT22;31507;51.494;7.518;2023-07-13T10:12:27;24.90;78.60
45807;DHT22;31507;51.494;7.518;2023-07-13T10:14:58;25.00;77.10
45807;DHT22;31507;51.494;7.518;2023-07-13T10:17:32;25.10;74.80
45807;DHT22;31507;51.494;7.518;2023-07-13T10:20:01;25.60;76.10
45807;DHT22;31507;51.494;7.518;2023-07-13T10:22:52;25.70;75.30
45807;DHT22;31507;51.494;7.518;2023-07-13T10:25:21;25.50;73.70
45807;DHT22;31507;51.494;7.518;2023-07-13T10:27:50;24.90;76.20
45807;DHT22;31507;51.494;7.518;2023-07-13T10:30:20;25.30;74.50
45807;DHT22;31507;51.494;7.518;2023-07-13T10:32:49;24.90;74.10
45807;DHT22;31507;51.494;7.518;2023-07-13T10:35:17;25.00;75.20
45807;DHT22;31507;51.494;7.518;2023-07-13T10:38:06;24.20;75.60
45807;DHT22;31507;51.494;7.518;2023-07-13T10:40:58;23.80;76.40
45807;DHT22;31507;51.494;7.518;2023-07-13T10:43:39;22.90;76.10
45807;DHT22;31507;51.494;7.518;2023-07-13T10:46:10;22.90;77.60
45807;DHT22;31507;51.494;7.518;2023-07-13T10:48:36;23.10;77.30
45807;DHT22;31507;51.494;7.518;2023-07-13T10:51:05;23.30;76.30
45807;DHT22;31507;51.494;7.518;2023-07-13T10:53:34;23.30;76.50
45807;DHT22;31507;51.494;7.518;2023-07-13T10:56:01;22.90;77.20
45807;DHT22;31507;51.494;7.518;2023-07-13T10:58:36;22.50;77.90
45807;DHT22;31507;51.494;7.518;2023-07-13T11:03:36;24.30;76.70
45807;DHT22;31507;51.494;7.518;2023-07-13T11:06:12;24.10;76.00
45807;DHT22;31507;51.494;7.518;2023-07-13T11:13:56;23.20;77.70
45807;DHT22;31507;51.494;7.518;2023-07-13T11:21:27;23.50;77.60
45807;DHT22;31507;51.494;7.518;2023-07-13T11:24:15;22.80;78.10
45807;DHT22;31507;51.494;7.518;2023-07-13T11:31:57;23.10;78.70
45807;DHT22;31507;51.494;7.518;2023-07-13T11:34:38;23.20;78.30
45807;DHT22;31507;51.494;7.518;2023-07-13T11:37:11;23.60;75.10
45807;DHT22;31507;51.494;7.518;2023-07-13T11:39:41;23.70;74.40
45807;DHT22;31507;51.494;7.518;2023-07-13T11:42:12;24.40;75.60
45807;DHT22;31507;51.494;7.518;2023-07-13T11:44:45;24.90;72.30
45807;DHT22;31507;51.494;7.518;2023-07-13T11:47:17;25.20;73.70
45807;DHT22;31507;51.494;7.518;2023-07-13T11:49:50;25.50;72.60
45807;DHT22;31507;51.494;7.518;2023-07-13T11:52:19;25.50;71.20
45807;DHT22;31507;51.494;7.518;2023-07-13T11:54:56;25.00;69.80
45807;DHT22;31507;51.494;7.518;2023-07-13T11:57:36;25.00;70.10
45807;DHT22;31507;51.494;7.518;2023-07-13T12:00:15;25.00;69.30
45807;DHT22;31507;51.494;7.518;2023-07-13T12:02:47;24.80;68.10
45807;DHT22;31507;51.494;7.518;2023-07-13T12:05:16;24.90;69.90
45807;DHT22;31507;51.494;7.518;2023-07-13T12:07:46;25.10;69.00
45807;DHT22;31507;51.494;7.518;2023-07-13T12:10:19;25.30;68.00
45807;DHT22;31507;51.494;7.518;2023-07-13T12:12:48;24.90;68.10
45807;DHT22;31507;51.494;7.518;2023-07-13T12:15:14;24.80;68.60
45807;DHT22;31507;51.494;7.518;2023-07-13T12:17:41;24.90;68.80
45807;DHT22;31507;51.494;7.518;2023-07-13T12:20:21;25.20;69.20
45807;DHT22;31507;51.494;7.518;2023-07-13T12:22:50;25.20;68.90
45807;DHT22;31507;51.494;7.518;2023-07-13T12:25:16;25.40;68.00
45807;DHT22;31507;51.494;7.518;2023-07-13T12:27:46;25.20;66.10
45807;DHT22;31507;51.494;7.518;2023-07-13T12:30:32;25.40;66.80
45807;DHT22;31507;51.494;7.518;2023-07-13T12:33:06;25.20;64.00
45807;DHT22;31507;51.494;7.518;2023-07-13T12:35:39;25.30;65.30
45807;DHT22;31507;51.494;7.518;2023-07-13T12:38:08;25.60;63.80
45807;DHT22;31507;51.494;7.518;2023-07-13T12:40:36;25.80;65.50
45807;DHT22;31507;51.494;7.518;2023-07-13T12:43:03;25.40;64.80
45807;DHT22;31507;51.494;7.518;2023-07-13T12:45:32;25.00;65.70
45807;DHT22;31507;51.494;7.518;2023-07-13T12:48:04;24.90;65.40
45807;DHT22;31507;51.494;7.518;2023-07-13T12:50:38;25.40;65.30
45807;DHT22;31507;51.494;7.518;2023-07-13T12:53:13;26.00;63.80
45807;DHT22;31507;51.494;7.518;2023-07-13T12:55:47;26.00;64.00
45807;DHT22;31507;51.494;7.518;2023-07-13T12:58:37;26.40;63.20
45807;DHT22;31507;51.494;7.518;2023-07-13T13:01:03;26.30;62.10
45807;DHT22;31507;51.494;7.518;2023-07-13T13:03:38;26.60;62.30
45807;DHT22;31507;51.494;7.518;2023-07-13T13:06:25;27.00;62.00
45807;DHT22;31507;51.494;7.518;2023-07-13T13:08:54;26.60;59.10
45807;DHT22;31507;51.494;7.518;2023-07-13T13:11:22;26.10;61.40
45807;DHT22;31507;51.494;7.518;2023-07-13T13:13:49;26.00;62.00
45807;DHT22;31507;51.494;7.518;2023-07-13T13:17:01;26.10;61.10
45807;DHT22;31507;51.494;7.518;2023-07-13T13:19:16;26.20;62.90
45807;DHT22;31507;51.494;7.518;2023-07-13T13:21:43;26.10;61.40
45807;DHT22;31507;51.494;7.518;2023-07-13T13:24:15;25.90;61.10
45807;DHT22;31507;51.494;7.518;2023-07-13T13:26:42;25.80;61.10
45807;DHT22;31507;51.494;7.518;2023-07-13T13:29:19;25.40;61.30
45807;DHT22;31507;51.494;7.518;2023-07-13T13:31:45;25.30;62.50
45807;DHT22;31507;51.494;7.518;2023-07-13T13:34:13;25.80;63.10
45807;DHT22;31507;51.494;7.518;2023-07-13T13:36:40;26.30;62.70
45807;DHT22;31507;51.494;7.518;2023-07-13T13:39:31;25.40;62.30
45807;DHT22;31507;51.494;7.518;2023-07-13T13:41:57;24.90;61.30
45807;DHT22;31507;51.494;7.518;2023-07-13T13:44:23;24.80;64.20
45807;DHT22;31507;51.494;7.518;2023-07-13T13:46:52;24.50;64.00
45807;DHT22;31507;51.494;7.518;2023-07-13T13:49:21;24.00;64.70
45807;DHT22;31507;51.494;7.518;2023-07-13T13:51:48;23.50;65.70
45807;DHT22;31507;51.494;7.518;2023-07-13T13:54:15;22.90;67.80
45807;DHT22;31507;51.494;7.518;2023-07-13T13:56:45;21.90;71.40
45807;DHT22;31507;51.494;7.518;2023-07-13T13:59:12;21.20;77.20
45807;DHT22;31507;51.494;7.518;2023-07-13T14:01:40;19.90;91.80
45807;DHT22;31507;51.494;7.518;2023-07-13T14:04:14;18.70;99.90
45807;DHT22;31507;51.494;7.518;2023-07-13T14:06:41;17.90;99.90
45807;DHT22;31507;51.494;7.518;2023-07-13T14:09:11;17.40;99.90
45807;DHT22;31507;51.494;7.518;2023-07-13T14:11:38;17.10;99.90
45807;DHT22;31507;51.494;7.518;2023-07-13T14:14:16;17.00;99.90
45807;DHT22;31507;51.494;7.518;2023-07-13T14:16:43;16.90;99.90
45807;DHT22;31507;51.494;7.518;2023-07-13T14:19:12;17.00;99.90
45807;DHT22;31507;51.494;7.518;2023-07-13T14:21:39;17.20;99.90
45807;DHT22;31507;51.494;7.518;2023-07-13T14:24:05;17.60;99.90
45807;DHT22;31507;51.494;7.518;2023-07-13T14:26:39;18.30;99.90
45807;DHT22;31507;51.494;7.518;2023-07-13T14:29:05;18.50;99.90
45807;DHT22;31507;51.494;7.518;2023-07-13T14:31:36;18.70;99.90
45807;DHT22;31507;51.494;7.518;2023-07-13T14:34:02;18.90;99.90
45807;DHT22;31507;51.494;7.518;2023-07-13T14:36:31;19.00;99.90
45807;DHT22;31507;51.494;7.518;2023-07-13T14:38:58;19.40;99.90
45807;DHT22;31507;51.494;7.518;2023-07-13T14:41:24;19.70;99.90
45807;DHT22;31507;51.494;7.518;2023-07-13T14:43:50;20.10;99.90
45807;DHT22;31507;51.494;7.518;2023-07-13T14:46:28;20.40;99.90
45807;DHT22;31507;51.494;7.518;2023-07-13T14:51:34;21.40;99.90
45807;DHT22;31507;51.494;7.518;2023-07-13T14:54:05;21.20;99.90
45807;DHT22;31507;51.494;7.518;2023-07-13T14:56:31;20.90;99.90
45807;DHT22;31507;51.494;7.518;2023-07-13T14:58:57;20.40;99.90
45807;DHT22;31507;51.494;7.518;2023-07-13T15:01:23;20.00;99.90
45807;DHT22;31507;51.494;7.518;2023-07-13T15:03:51;19.40;99.90
45807;DHT22;31507;51.494;7.518;2023-07-13T15:06:17;19.10;99.90
45807;DHT22;31507;51.494;7.518;2023-07-13T15:08:45;18.70;99.90
45807;DHT22;31507;51.494;7.518;2023-07-13T15:11:10;18.30;99.90
45807;DHT22;31507;51.494;7.518;2023-07-13T15:13:41;18.00;99.90
45807;DHT22;31507;51.494;7.518;2023-07-13T15:16:18;17.80;99.90
45807;DHT22;31507;51.494;7.518;2023-07-13T15:18:46;17.60;99.90
45807;DHT22;31507;51.494;7.518;2023-07-13T15:21:17;17.60;99.90
45807;DHT22;31507;51.494;7.518;2023-07-13T15:23:44;17.60;99.90
45807;DHT22;31507;51.494;7.518;2023-07-13T15:26:17;17.70;99.90
45807;DHT22;31507;51.494;7.518;2023-07-13T15:28:44;17.80;99.90
45807;DHT22;31507;51.494;7.518;2023-07-13T15:31:30;18.00;99.90
45807;DHT22;31507;51.494;7.518;2023-07-13T15:33:58;18.30;99.90
45807;DHT22;31507;51.494;7.518;2023-07-13T15:36:25;18.50;99.90
45807;DHT22;31507;51.494;7.518;2023-07-13T15:38:52;18.60;99.90
45807;DHT22;31507;51.494;7.518;2023-07-13T15:41:24;18.60;99.90
45807;DHT22;31507;51.494;7.518;2023-07-13T15:43:52;19.10;99.90
45807;DHT22;31507;51.494;7.518;2023-07-13T15:46:19;19.90;99.90
45807;DHT22;31507;51.494;7.518;2023-07-13T15:48:46;20.40;99.90
45807;DHT22;31507;51.494;7.518;2023-07-13T15:51:23;20.50;99.90
45807;DHT22;31507;51.494;7.518;2023-07-13T15:53:49;20.50;99.90
45807;DHT22;31507;51.494;7.518;2023-07-13T15:56:20;19.90;99.90
45807;DHT22;31507;51.494;7.518;2023-07-13T15:58:48;19.50;99.90
45807;DHT22;31507;51.494;7.518;2023-07-13T16:01:14;19.00;99.90
45807;DHT22;31507;51.494;7.518;2023-07-13T16:03:40;18.70;99.90
45807;DHT22;31507;51.494;7.518;2023-07-13T16:06:28;18.60;99.90
45807;DHT22;31507;51.494;7.518;2023-07-13T16:08:55;18.50;99.90
45807;DHT22;31507;51.494;7.518;2023-07-13T16:11:24;18.50;99.90
45807;DHT22;31507;51.494;7.518;2023-07-13T16:13:51;18.60;99.90
45807;DHT22;31507;51.494;7.518;2023-07-13T16:16:27;18.60;99.90
45807;DHT22;31507;51.494;7.518;2023-07-13T16:19:01;18.40;99.90
45807;DHT22;31507;51.494;7.518;2023-07-13T16:21:29;18.30;99.90